sensor_id;sensor_type;location;lat;lon;timestamp;P1;durP1;ratioP1;P2;durP2;ratioP2
12511;SDS011;6321;53.798;10.382;2023-02-21T00:00:27;6.13;;;2.10;;
12511;SDS011;6321;53.798;10.382;2023-02-21T00:03:12;1.77;;;1.37;;
12511;SDS011;6321;53.798;10.382;2023-02-21T00:05:56;3.37;;;1.70;;
12511;SDS011;6321;53.798;10.382;2023-02-21T00:08:41;1.37;;;1.20;;
12511;SDS011;6321;53.798;10.382;2023-02-21T00:11:26;3.27;;;1.90;;
12511;SDS011;6321;53.798;10.382;2023-02-21T00:14:10;4.23;;;1.97;;
12511;SDS011;6321;53.798;10.382;2023-02-21T00:16:55;5.43;;;2.20;;
12511;SDS011;6321;53.798;10.382;2023-02-21T00:19:39;3.27;;;1.70;;
12511;SDS011;6321;53.798;10.382;2023-02-21T00:22:24;4.23;;;2.10;;
12511;SDS011;6321;53.798;10.382;2023-02-21T00:25:08;4.47;;;2.87;;
12511;SDS011;6321;53.798;10.382;2023-02-21T00:27:53;5.10;;;1.93;;
12511;SDS011;6321;53.798;10.382;2023-02-21T00:30:37;5.70;;;1.93;;
12511;SDS011;6321;53.798;10.382;2023-02-21T00:33:21;6.70;;;2.17;;
12511;SDS011;6321;53.798;10.382;2023-02-21T00:36:06;3.37;;;1.97;;
12511;SDS011;6321;53.798;10.382;2023-02-21T00:38:51;3.93;;;1.90;;
12511;SDS011;6321;53.798;10.382;2023-02-21T00:41:35;4.60;;;2.00;;
12511;SDS011;6321;53.798;10.382;2023-02-21T00:44:20;3.30;;;1.97;;
12511;SDS011;6321;53.798;10.382;2023-02-21T00:47:04;6.73;;;2.73;;
12511;SDS011;6321;53.798;10.382;2023-02-21T00:49:48;4.80;;;2.53;;
12511;SDS011;6321;53.798;10.382;2023-02-21T00:52:33;6.10;;;2.50;;
12511;SDS011;6321;53.798;10.382;2023-02-21T00:55:18;4.77;;;2.40;;
12511;SDS011;6321;53.798;10.382;2023-02-21T00:58:03;7.33;;;2.10;;
12511;SDS011;6321;53.798;10.382;2023-02-21T01:00:47;6.93;;;3.27;;
12511;SDS011;6321;53.798;10.382;2023-02-21T01:03:32;6.00;;;2.13;;
12511;SDS011;6321;53.798;10.382;2023-02-21T01:06:16;5.53;;;2.03;;
12511;SDS011;6321;53.798;10.382;2023-02-21T01:09:01;3.07;;;1.67;;
12511;SDS011;6321;53.798;10.382;2023-02-21T01:11:45;3.47;;;1.40;;
12511;SDS011;6321;53.798;10.382;2023-02-21T01:14:30;2.50;;;1.23;;
12511;SDS011;6321;53.798;10.382;2023-02-21T01:17:14;3.63;;;1.50;;
12511;SDS011;6321;53.798;10.382;2023-02-21T01:19:59;3.23;;;1.30;;
12511;SDS011;6321;53.798;10.382;2023-02-21T01:22:45;4.23;;;1.33;;
12511;SDS011;6321;53.798;10.382;2023-02-21T01:25:29;5.30;;;1.50;;
12511;SDS011;6321;53.798;10.382;2023-02-21T01:28:14;1.77;;;1.37;;
12511;SDS011;6321;53.798;10.382;2023-02-21T01:30:58;1.90;;;1.60;;
12511;SDS011;6321;53.798;10.382;2023-02-21T01:33:43;1.30;;;1.20;;
12511;SDS011;6321;53.798;10.382;2023-02-21T01:36:27;3.80;;;1.67;;
12511;SDS011;6321;53.798;10.382;2023-02-21T01:39:12;1.60;;;1.50;;
12511;SDS011;6321;53.798;10.382;2023-02-21T01:41:57;2.30;;;1.77;;
12511;SDS011;6321;53.798;10.382;2023-02-21T01:44:42;3.17;;;1.90;;
12511;SDS011;6321;53.798;10.382;2023-02-21T01:47:28;2.73;;;1.77;;
12511;SDS011;6321;53.798;10.382;2023-02-21T01:50:20;4.43;;;2.27;;
12511;SDS011;6321;53.798;10.382;2023-02-21T01:53:07;4.23;;;2.70;;
12511;SDS011;6321;53.798;10.382;2023-02-21T01:55:54;5.00;;;2.63;;
12511;SDS011;6321;53.798;10.382;2023-02-21T01:58:39;4.70;;;2.13;;
12511;SDS011;6321;53.798;10.382;2023-02-21T02:01:27;2.53;;;2.27;;
12511;SDS011;6321;53.798;10.382;2023-02-21T02:04:13;3.87;;;2.63;;
12511;SDS011;6321;53.798;10.382;2023-02-21T02:06:57;4.23;;;2.73;;
12511;SDS011;6321;53.798;10.382;2023-02-21T02:09:42;3.50;;;1.83;;
12511;SDS011;6321;53.798;10.382;2023-02-21T02:20:25;3.70;;;1.97;;
12511;SDS011;6321;53.798;10.382;2023-02-21T02:25:45;2.13;;;1.70;;
12511;SDS011;6321;53.798;10.382;2023-02-21T02:28:26;3.17;;;2.10;;
12511;SDS011;6321;53.798;10.382;2023-02-21T02:31:14;2.10;;;1.80;;
12511;SDS011;6321;53.798;10.382;2023-02-21T02:33:50;2.30;;;1.87;;
12511;SDS011;6321;53.798;10.382;2023-02-21T02:39:05;1.47;;;1.37;;
12511;SDS011;6321;53.798;10.382;2023-02-21T02:44:20;1.90;;;1.23;;
12511;SDS011;6321;53.798;10.382;2023-02-21T02:46:49;3.40;;;1.13;;
12511;SDS011;6321;53.798;10.382;2023-02-21T02:49:17;3.40;;;1.93;;
12511;SDS011;6321;53.798;10.382;2023-02-21T02:51:44;5.17;;;1.97;;
12511;SDS011;6321;53.798;10.382;2023-02-21T02:54:10;5.00;;;1.53;;
12511;SDS011;6321;53.798;10.382;2023-02-21T02:56:36;3.33;;;1.53;;
12511;SDS011;6321;53.798;10.382;2023-02-21T03:01:34;8.00;;;2.43;;
12511;SDS011;6321;53.798;10.382;2023-02-21T03:09:25;6.30;;;1.57;;
12511;SDS011;6321;53.798;10.382;2023-02-21T03:12:02;3.47;;;1.40;;
12511;SDS011;6321;53.798;10.382;2023-02-21T03:14:34;7.57;;;1.87;;
12511;SDS011;6321;53.798;10.382;2023-02-21T03:17:03;4.23;;;1.40;;
12511;SDS011;6321;53.798;10.382;2023-02-21T03:19:34;5.70;;;1.37;;
12511;SDS011;6321;53.798;10.382;2023-02-21T03:22:15;8.50;;;1.97;;
12511;SDS011;6321;53.798;10.382;2023-02-21T03:24:42;7.97;;;1.90;;
12511;SDS011;6321;53.798;10.382;2023-02-21T03:27:10;6.67;;;2.07;;
12511;SDS011;6321;53.798;10.382;2023-02-21T03:29:37;6.47;;;2.27;;
12511;SDS011;6321;53.798;10.382;2023-02-21T03:32:05;4.40;;;1.17;;
12511;SDS011;6321;53.798;10.382;2023-02-21T03:34:36;5.20;;;1.93;;
12511;SDS011;6321;53.798;10.382;2023-02-21T03:37:03;7.20;;;2.17;;
12511;SDS011;6321;53.798;10.382;2023-02-21T03:39:29;13.00;;;2.67;;
12511;SDS011;6321;53.798;10.382;2023-02-21T03:41:55;6.30;;;2.57;;
12511;SDS011;6321;53.798;10.382;2023-02-21T03:44:21;6.80;;;2.17;;
12511;SDS011;6321;53.798;10.382;2023-02-21T03:46:47;5.87;;;1.57;;
12511;SDS011;6321;53.798;10.382;2023-02-21T03:49:13;14.05;;;3.05;;
12511;SDS011;6321;53.798;10.382;2023-02-21T03:51:38;10.30;;;3.13;;
12511;SDS011;6321;53.798;10.382;2023-02-21T03:54:04;11.33;;;2.03;;
12511;SDS011;6321;53.798;10.382;2023-02-21T03:56:30;5.60;;;2.37;;
12511;SDS011;6321;53.798;10.382;2023-02-21T03:58:56;5.20;;;2.30;;
12511;SDS011;6321;53.798;10.382;2023-02-21T04:01:22;7.37;;;2.00;;
12511;SDS011;6321;53.798;10.382;2023-02-21T04:03:49;8.30;;;1.90;;
12511;SDS011;6321;53.798;10.382;2023-02-21T04:06:15;5.33;;;2.37;;
12511;SDS011;6321;53.798;10.382;2023-02-21T04:08:41;4.57;;;1.67;;
12511;SDS011;6321;53.798;10.382;2023-02-21T04:11:07;8.70;;;2.47;;
12511;SDS011;6321;53.798;10.382;2023-02-21T04:13:33;7.50;;;1.70;;
12511;SDS011;6321;53.798;10.382;2023-02-21T04:15:59;6.27;;;2.13;;
12511;SDS011;6321;53.798;10.382;2023-02-21T04:18:25;9.80;;;2.63;;
12511;SDS011;6321;53.798;10.382;2023-02-21T04:20:51;9.93;;;2.43;;
12511;SDS011;6321;53.798;10.382;2023-02-21T04:23:20;13.13;;;2.23;;
12511;SDS011;6321;53.798;10.382;2023-02-21T04:25:46;4.93;;;2.50;;
12511;SDS011;6321;53.798;10.382;2023-02-21T04:28:12;7.83;;;2.13;;
12511;SDS011;6321;53.798;10.382;2023-02-21T04:30:38;11.20;;;2.73;;
12511;SDS011;6321;53.798;10.382;2023-02-21T04:33:04;11.03;;;2.20;;
12511;SDS011;6321;53.798;10.382;2023-02-21T04:35:30;10.63;;;2.13;;
12511;SDS011;6321;53.798;10.382;2023-02-21T04:37:56;8.23;;;1.83;;
12511;SDS011;6321;53.798;10.382;2023-02-21T04:40:22;6.10;;;1.97;;
12511;SDS011;6321;53.798;10.382;2023-02-21T04:42:48;10.23;;;2.23;;
12511;SDS011;6321;53.798;10.382;2023-02-21T04:45:14;8.07;;;2.40;;
12511;SDS011;6321;53.798;10.382;2023-02-21T04:47:40;10.00;;;2.50;;
12511;SDS011;6321;53.798;10.382;2023-02-21T04:50:06;10.67;;;3.03;;
12511;SDS011;6321;53.798;10.382;2023-02-21T04:52:32;5.83;;;1.90;;
12511;SDS011;6321;53.798;10.382;2023-02-21T04:54:58;14.43;;;2.50;;
12511;SDS011;6321;53.798;10.382;2023-02-21T04:57:24;9.70;;;2.23;;
12511;SDS011;6321;53.798;10.382;2023-02-21T04:59:55;12.10;;;2.30;;
12511;SDS011;6321;53.798;10.382;2023-02-21T05:02:21;12.50;;;2.70;;
12511;SDS011;6321;53.798;10.382;2023-02-21T05:04:47;7.30;;;1.97;;
12511;SDS011;6321;53.798;10.382;2023-02-21T05:07:12;8.00;;;1.97;;
12511;SDS011;6321;53.798;10.382;2023-02-21T05:09:38;13.70;;;2.90;;
12511;SDS011;6321;53.798;10.382;2023-02-21T05:12:04;7.73;;;2.13;;
12511;SDS011;6321;53.798;10.382;2023-02-21T05:14:35;9.83;;;2.20;;
12511;SDS011;6321;53.798;10.382;2023-02-21T05:17:02;9.47;;;2.60;;
12511;SDS011;6321;53.798;10.382;2023-02-21T05:19:28;4.37;;;1.83;;
12511;SDS011;6321;53.798;10.382;2023-02-21T05:21:57;11.93;;;2.70;;
12511;SDS011;6321;53.798;10.382;2023-02-21T05:24:24;11.13;;;3.17;;
12511;SDS011;6321;53.798;10.382;2023-02-21T05:26:50;11.17;;;2.70;;
12511;SDS011;6321;53.798;10.382;2023-02-21T05:29:17;12.63;;;2.53;;
12511;SDS011;6321;53.798;10.382;2023-02-21T05:31:43;5.67;;;1.63;;
12511;SDS011;6321;53.798;10.382;2023-02-21T05:34:09;17.07;;;2.60;;
12511;SDS011;6321;53.798;10.382;2023-02-21T05:36:36;12.57;;;3.70;;
12511;SDS011;6321;53.798;10.382;2023-02-21T05:39:02;12.57;;;2.63;;
12511;SDS011;6321;53.798;10.382;2023-02-21T05:41:28;13.90;;;2.73;;
12511;SDS011;6321;53.798;10.382;2023-02-21T05:43:54;12.77;;;2.47;;
12511;SDS011;6321;53.798;10.382;2023-02-21T05:46:31;10.80;;;2.33;;
12511;SDS011;6321;53.798;10.382;2023-02-21T05:48:57;10.83;;;3.60;;
12511;SDS011;6321;53.798;10.382;2023-02-21T05:51:24;18.03;;;3.57;;
12511;SDS011;6321;53.798;10.382;2023-02-21T05:53:51;14.13;;;3.50;;
12511;SDS011;6321;53.798;10.382;2023-02-21T05:56:17;13.63;;;3.17;;
12511;SDS011;6321;53.798;10.382;2023-02-21T05:58:44;15.27;;;3.20;;
12511;SDS011;6321;53.798;10.382;2023-02-21T06:01:10;15.20;;;3.87;;
12511;SDS011;6321;53.798;10.382;2023-02-21T06:03:36;12.23;;;3.23;;
12511;SDS011;6321;53.798;10.382;2023-02-21T06:06:02;12.43;;;2.73;;
12511;SDS011;6321;53.798;10.382;2023-02-21T06:08:28;16.53;;;3.83;;
12511;SDS011;6321;53.798;10.382;2023-02-21T06:10:54;16.63;;;2.93;;
12511;SDS011;6321;53.798;10.382;2023-02-21T06:13:20;12.70;;;3.50;;
12511;SDS011;6321;53.798;10.382;2023-02-21T06:15:46;15.40;;;3.40;;
12511;SDS011;6321;53.798;10.382;2023-02-21T06:18:12;14.70;;;3.27;;
12511;SDS011;6321;53.798;10.382;2023-02-21T06:20:38;12.60;;;3.10;;
12511;SDS011;6321;53.798;10.382;2023-02-21T06:23:04;15.03;;;3.57;;
12511;SDS011;6321;53.798;10.382;2023-02-21T06:25:30;17.33;;;3.43;;
12511;SDS011;6321;53.798;10.382;2023-02-21T06:27:56;16.10;;;3.10;;
12511;SDS011;6321;53.798;10.382;2023-02-21T06:30:22;11.73;;;3.30;;
12511;SDS011;6321;53.798;10.382;2023-02-21T06:32:48;9.90;;;3.30;;
12511;SDS011;6321;53.798;10.382;2023-02-21T06:35:14;23.20;;;2.97;;
12511;SDS011;6321;53.798;10.382;2023-02-21T06:37:40;15.87;;;3.43;;
12511;SDS011;6321;53.798;10.382;2023-02-21T06:40:06;13.73;;;3.43;;
12511;SDS011;6321;53.798;10.382;2023-02-21T06:42:32;21.17;;;3.70;;
12511;SDS011;6321;53.798;10.382;2023-02-21T06:44:58;17.97;;;3.60;;
12511;SDS011;6321;53.798;10.382;2023-02-21T06:47:24;15.03;;;4.00;;
12511;SDS011;6321;53.798;10.382;2023-02-21T06:49:50;18.27;;;4.03;;
12511;SDS011;6321;53.798;10.382;2023-02-21T06:52:16;20.73;;;4.27;;
12511;SDS011;6321;53.798;10.382;2023-02-21T06:54:42;12.53;;;2.90;;
12511;SDS011;6321;53.798;10.382;2023-02-21T06:57:09;13.60;;;3.37;;
12511;SDS011;6321;53.798;10.382;2023-02-21T06:59:35;12.33;;;3.10;;
12511;SDS011;6321;53.798;10.382;2023-02-21T07:02:01;10.57;;;2.83;;
12511;SDS011;6321;53.798;10.382;2023-02-21T07:04:28;17.33;;;3.57;;
12511;SDS011;6321;53.798;10.382;2023-02-21T07:06:54;16.60;;;4.53;;
12511;SDS011;6321;53.798;10.382;2023-02-21T07:09:20;10.93;;;2.90;;
12511;SDS011;6321;53.798;10.382;2023-02-21T07:11:46;17.00;;;3.33;;
12511;SDS011;6321;53.798;10.382;2023-02-21T07:14:12;18.97;;;3.40;;
12511;SDS011;6321;53.798;10.382;2023-02-21T07:16:39;9.73;;;3.20;;
12511;SDS011;6321;53.798;10.382;2023-02-21T07:19:04;10.93;;;3.17;;
12511;SDS011;6321;53.798;10.382;2023-02-21T07:21:31;15.37;;;4.40;;
12511;SDS011;6321;53.798;10.382;2023-02-21T07:23:56;11.13;;;3.67;;
12511;SDS011;6321;53.798;10.382;2023-02-21T07:26:22;8.70;;;2.70;;
12511;SDS011;6321;53.798;10.382;2023-02-21T07:28:49;19.23;;;4.13;;
12511;SDS011;6321;53.798;10.382;2023-02-21T07:31:15;8.17;;;2.73;;
12511;SDS011;6321;53.798;10.382;2023-02-21T07:33:41;12.67;;;2.70;;
12511;SDS011;6321;53.798;10.382;2023-02-21T07:36:07;13.00;;;3.10;;
12511;SDS011;6321;53.798;10.382;2023-02-21T07:38:33;15.20;;;4.97;;
12511;SDS011;6321;53.798;10.382;2023-02-21T07:41:00;13.87;;;3.87;;
12511;SDS011;6321;53.798;10.382;2023-02-21T07:43:26;21.67;;;4.23;;
12511;SDS011;6321;53.798;10.382;2023-02-21T07:45:52;14.67;;;3.90;;
12511;SDS011;6321;53.798;10.382;2023-02-21T07:48:18;16.50;;;3.77;;
12511;SDS011;6321;53.798;10.382;2023-02-21T07:50:44;19.60;;;3.40;;
12511;SDS011;6321;53.798;10.382;2023-02-21T07:53:11;16.80;;;3.57;;
12511;SDS011;6321;53.798;10.382;2023-02-21T07:55:37;23.83;;;3.97;;
12511;SDS011;6321;53.798;10.382;2023-02-21T07:58:03;13.90;;;4.13;;
12511;SDS011;6321;53.798;10.382;2023-02-21T08:00:30;20.33;;;4.67;;
12511;SDS011;6321;53.798;10.382;2023-02-21T08:02:56;15.90;;;3.80;;
12511;SDS011;6321;53.798;10.382;2023-02-21T08:05:22;17.40;;;3.73;;
12511;SDS011;6321;53.798;10.382;2023-02-21T08:07:48;16.73;;;4.17;;
12511;SDS011;6321;53.798;10.382;2023-02-21T08:10:18;22.50;;;4.10;;
12511;SDS011;6321;53.798;10.382;2023-02-21T08:12:44;16.47;;;4.47;;
12511;SDS011;6321;53.798;10.382;2023-02-21T08:15:10;14.80;;;3.57;;
12511;SDS011;6321;53.798;10.382;2023-02-21T08:17:36;16.80;;;4.00;;
12511;SDS011;6321;53.798;10.382;2023-02-21T08:20:02;18.37;;;4.33;;
12511;SDS011;6321;53.798;10.382;2023-02-21T08:22:30;15.30;;;2.90;;
12511;SDS011;6321;53.798;10.382;2023-02-21T08:24:56;20.03;;;3.83;;
12511;SDS011;6321;53.798;10.382;2023-02-21T08:27:21;18.07;;;3.87;;
12511;SDS011;6321;53.798;10.382;2023-02-21T08:29:51;20.20;;;5.00;;
12511;SDS011;6321;53.798;10.382;2023-02-21T08:32:17;13.40;;;3.40;;
12511;SDS011;6321;53.798;10.382;2023-02-21T08:34:44;20.63;;;4.23;;
12511;SDS011;6321;53.798;10.382;2023-02-21T08:37:10;14.77;;;3.53;;
12511;SDS011;6321;53.798;10.382;2023-02-21T08:39:43;13.13;;;3.30;;
12511;SDS011;6321;53.798;10.382;2023-02-21T08:42:10;20.10;;;4.37;;
12511;SDS011;6321;53.798;10.382;2023-02-21T08:44:36;23.20;;;4.60;;
12511;SDS011;6321;53.798;10.382;2023-02-21T08:47:02;28.30;;;5.00;;
12511;SDS011;6321;53.798;10.382;2023-02-21T08:49:28;16.63;;;3.77;;
12511;SDS011;6321;53.798;10.382;2023-02-21T08:51:54;18.10;;;3.93;;
12511;SDS011;6321;53.798;10.382;2023-02-21T08:54:20;18.77;;;3.87;;
12511;SDS011;6321;53.798;10.382;2023-02-21T08:56:46;15.30;;;3.67;;
12511;SDS011;6321;53.798;10.382;2023-02-21T08:59:13;22.80;;;3.70;;
12511;SDS011;6321;53.798;10.382;2023-02-21T09:01:39;25.30;;;4.70;;
12511;SDS011;6321;53.798;10.382;2023-02-21T09:04:05;17.70;;;4.00;;
12511;SDS011;6321;53.798;10.382;2023-02-21T09:06:31;21.60;;;4.10;;
12511;SDS011;6321;53.798;10.382;2023-02-21T09:08:57;20.37;;;3.97;;
12511;SDS011;6321;53.798;10.382;2023-02-21T09:11:23;19.33;;;4.03;;
12511;SDS011;6321;53.798;10.382;2023-02-21T09:13:49;21.60;;;4.53;;
12511;SDS011;6321;53.798;10.382;2023-02-21T09:16:19;14.83;;;3.80;;
12511;SDS011;6321;53.798;10.382;2023-02-21T09:18:51;25.37;;;4.30;;
12511;SDS011;6321;53.798;10.382;2023-02-21T09:21:18;17.23;;;4.00;;
12511;SDS011;6321;53.798;10.382;2023-02-21T09:23:43;14.50;;;3.40;;
12511;SDS011;6321;53.798;10.382;2023-02-21T09:26:09;12.37;;;3.37;;
12511;SDS011;6321;53.798;10.382;2023-02-21T09:28:35;14.97;;;4.03;;
12511;SDS011;6321;53.798;10.382;2023-02-21T09:31:07;24.57;;;5.03;;
12511;SDS011;6321;53.798;10.382;2023-02-21T09:33:35;20.00;;;3.70;;
12511;SDS011;6321;53.798;10.382;2023-02-21T09:36:05;23.53;;;3.93;;
12511;SDS011;6321;53.798;10.382;2023-02-21T09:38:31;26.83;;;5.13;;
12511;SDS011;6321;53.798;10.382;2023-02-21T09:40:58;19.30;;;5.33;;
12511;SDS011;6321;53.798;10.382;2023-02-21T09:43:32;22.07;;;4.77;;
12511;SDS011;6321;53.798;10.382;2023-02-21T09:46:04;20.70;;;4.57;;
12511;SDS011;6321;53.798;10.382;2023-02-21T09:48:31;16.53;;;3.87;;
12511;SDS011;6321;53.798;10.382;2023-02-21T09:51:01;14.17;;;3.90;;
12511;SDS011;6321;53.798;10.382;2023-02-21T09:53:29;24.03;;;4.70;;
12511;SDS011;6321;53.798;10.382;2023-02-21T09:55:56;29.73;;;4.43;;
12511;SDS011;6321;53.798;10.382;2023-02-21T09:58:24;20.03;;;4.57;;
12511;SDS011;6321;53.798;10.382;2023-02-21T10:00:50;19.63;;;4.90;;
12511;SDS011;6321;53.798;10.382;2023-02-21T10:03:22;23.63;;;4.83;;
12511;SDS011;6321;53.798;10.382;2023-02-21T10:05:52;25.80;;;4.27;;
12511;SDS011;6321;53.798;10.382;2023-02-21T10:08:28;18.47;;;4.27;;
12511;SDS011;6321;53.798;10.382;2023-02-21T10:13:50;16.63;;;3.70;;
12511;SDS011;6321;53.798;10.382;2023-02-21T10:16:41;16.87;;;4.13;;
12511;SDS011;6321;53.798;10.382;2023-02-21T10:19:21;21.10;;;4.43;;
12511;SDS011;6321;53.798;10.382;2023-02-21T10:21:50;12.87;;;3.07;;
12511;SDS011;6321;53.798;10.382;2023-02-21T10:24:21;23.13;;;5.00;;
12511;SDS011;6321;53.798;10.382;2023-02-21T10:27:01;16.03;;;4.40;;
12511;SDS011;6321;53.798;10.382;2023-02-21T10:29:43;14.60;;;3.73;;
12511;SDS011;6321;53.798;10.382;2023-02-21T10:32:11;18.63;;;4.23;;
12511;SDS011;6321;53.798;10.382;2023-02-21T10:34:37;20.43;;;4.00;;
12511;SDS011;6321;53.798;10.382;2023-02-21T10:37:22;23.47;;;4.10;;
12511;SDS011;6321;53.798;10.382;2023-02-21T10:39:52;17.13;;;3.67;;
12511;SDS011;6321;53.798;10.382;2023-02-21T10:42:39;24.27;;;4.37;;
12511;SDS011;6321;53.798;10.382;2023-02-21T10:45:06;20.50;;;4.40;;
12511;SDS011;6321;53.798;10.382;2023-02-21T10:47:38;12.47;;;3.73;;
12511;SDS011;6321;53.798;10.382;2023-02-21T10:50:08;14.43;;;3.77;;
12511;SDS011;6321;53.798;10.382;2023-02-21T10:52:36;13.37;;;3.33;;
12511;SDS011;6321;53.798;10.382;2023-02-21T10:55:04;16.47;;;4.57;;
12511;SDS011;6321;53.798;10.382;2023-02-21T10:57:36;15.07;;;3.83;;
12511;SDS011;6321;53.798;10.382;2023-02-21T11:00:03;15.30;;;3.53;;
12511;SDS011;6321;53.798;10.382;2023-02-21T11:02:40;17.47;;;4.77;;
12511;SDS011;6321;53.798;10.382;2023-02-21T11:05:10;8.10;;;2.50;;
12511;SDS011;6321;53.798;10.382;2023-02-21T11:07:37;13.83;;;3.07;;
12511;SDS011;6321;53.798;10.382;2023-02-21T11:10:16;12.07;;;3.13;;
12511;SDS011;6321;53.798;10.382;2023-02-21T11:13:02;19.33;;;3.67;;
12511;SDS011;6321;53.798;10.382;2023-02-21T11:15:29;17.53;;;3.13;;
12511;SDS011;6321;53.798;10.382;2023-02-21T11:18:12;13.53;;;3.60;;
12511;SDS011;6321;53.798;10.382;2023-02-21T11:20:38;20.33;;;3.10;;
12511;SDS011;6321;53.798;10.382;2023-02-21T11:23:04;10.30;;;3.33;;
12511;SDS011;6321;53.798;10.382;2023-02-21T11:25:41;9.20;;;3.03;;
12511;SDS011;6321;53.798;10.382;2023-02-21T11:30:39;16.33;;;3.30;;
12511;SDS011;6321;53.798;10.382;2023-02-21T11:33:08;10.77;;;3.30;;
12511;SDS011;6321;53.798;10.382;2023-02-21T11:35:48;13.93;;;3.37;;
12511;SDS011;6321;53.798;10.382;2023-02-21T11:38:34;12.93;;;3.27;;
12511;SDS011;6321;53.798;10.382;2023-02-21T11:41:00;17.53;;;3.50;;
12511;SDS011;6321;53.798;10.382;2023-02-21T11:43:27;17.80;;;4.00;;
12511;SDS011;6321;53.798;10.382;2023-02-21T11:48:41;19.33;;;3.83;;
12511;SDS011;6321;53.798;10.382;2023-02-21T11:51:15;18.77;;;4.87;;
12511;SDS011;6321;53.798;10.382;2023-02-21T11:53:42;13.63;;;3.33;;
12511;SDS011;6321;53.798;10.382;2023-02-21T12:06:47;14.13;;;2.83;;
12511;SDS011;6321;53.798;10.382;2023-02-21T12:09:37;16.63;;;3.37;;
12511;SDS011;6321;53.798;10.382;2023-02-21T12:14:37;14.43;;;2.90;;
12511;SDS011;6321;53.798;10.382;2023-02-21T12:22:19;13.83;;;2.87;;
12511;SDS011;6321;53.798;10.382;2023-02-21T12:24:54;11.33;;;2.17;;
12511;SDS011;6321;53.798;10.382;2023-02-21T12:27:33;11.73;;;2.93;;
12511;SDS011;6321;53.798;10.382;2023-02-21T12:32:33;13.57;;;3.23;;
12511;SDS011;6321;53.798;10.382;2023-02-21T12:37:49;13.77;;;3.07;;
12511;SDS011;6321;53.798;10.382;2023-02-21T12:45:45;10.37;;;3.03;;
12511;SDS011;6321;53.798;10.382;2023-02-21T12:50:44;13.40;;;2.97;;
12511;SDS011;6321;53.798;10.382;2023-02-21T12:53:15;15.40;;;3.23;;
12511;SDS011;6321;53.798;10.382;2023-02-21T12:55:46;7.57;;;2.53;;
12511;SDS011;6321;53.798;10.382;2023-02-21T13:00:59;9.97;;;2.80;;
12511;SDS011;6321;53.798;10.382;2023-02-21T13:05:57;12.60;;;2.63;;
12511;SDS011;6321;53.798;10.382;2023-02-21T13:13:21;10.27;;;2.50;;
12511;SDS011;6321;53.798;10.382;2023-02-21T13:15:48;8.17;;;2.93;;
12511;SDS011;6321;53.798;10.382;2023-02-21T13:18:22;10.30;;;2.67;;
12511;SDS011;6321;53.798;10.382;2023-02-21T13:20:56;9.50;;;2.50;;
12511;SDS011;6321;53.798;10.382;2023-02-21T13:26:31;12.20;;;3.23;;
12511;SDS011;6321;53.798;10.382;2023-02-21T13:29:00;2.67;;;1.27;;
12511;SDS011;6321;53.798;10.382;2023-02-21T13:31:28;11.57;;;3.07;;
12511;SDS011;6321;53.798;10.382;2023-02-21T13:34:07;10.60;;;2.70;;
12511;SDS011;6321;53.798;10.382;2023-02-21T13:41:43;12.47;;;2.73;;
12511;SDS011;6321;53.798;10.382;2023-02-21T13:44:11;11.03;;;2.67;;
12511;SDS011;6321;53.798;10.382;2023-02-21T13:51:49;7.13;;;2.00;;
12511;SDS011;6321;53.798;10.382;2023-02-21T13:54:20;12.17;;;2.43;;
12511;SDS011;6321;53.798;10.382;2023-02-21T13:56:47;11.97;;;2.17;;
12511;SDS011;6321;53.798;10.382;2023-02-21T14:01:49;12.83;;;3.93;;
12511;SDS011;6321;53.798;10.382;2023-02-21T14:07:00;12.43;;;3.27;;
12511;SDS011;6321;53.798;10.382;2023-02-21T14:09:27;10.20;;;2.20;;
12511;SDS011;6321;53.798;10.382;2023-02-21T14:11:52;10.97;;;3.23;;
12511;SDS011;6321;53.798;10.382;2023-02-21T14:14:23;12.80;;;3.60;;
12511;SDS011;6321;53.798;10.382;2023-02-21T14:17:03;12.93;;;3.10;;
12511;SDS011;6321;53.798;10.382;2023-02-21T14:19:40;10.40;;;2.90;;
12511;SDS011;6321;53.798;10.382;2023-02-21T14:22:26;8.00;;;2.83;;
12511;SDS011;6321;53.798;10.382;2023-02-21T14:25:02;8.30;;;2.67;;
12511;SDS011;6321;53.798;10.382;2023-02-21T14:27:30;8.40;;;3.37;;
12511;SDS011;6321;53.798;10.382;2023-02-21T14:32:33;22.23;;;3.53;;
12511;SDS011;6321;53.798;10.382;2023-02-21T14:34:59;14.77;;;3.30;;
12511;SDS011;6321;53.798;10.382;2023-02-21T14:39:53;11.13;;;3.80;;
12511;SDS011;6321;53.798;10.382;2023-02-21T14:42:26;10.90;;;2.93;;
12511;SDS011;6321;53.798;10.382;2023-02-21T14:45:03;12.10;;;2.93;;
12511;SDS011;6321;53.798;10.382;2023-02-21T14:47:39;9.40;;;2.67;;
12511;SDS011;6321;53.798;10.382;2023-02-21T15:00:17;15.10;;;3.10;;
12511;SDS011;6321;53.798;10.382;2023-02-21T15:05:15;12.77;;;3.00;;
12511;SDS011;6321;53.798;10.382;2023-02-21T15:07:49;14.23;;;2.77;;
12511;SDS011;6321;53.798;10.382;2023-02-21T15:10:20;9.83;;;2.60;;
12511;SDS011;6321;53.798;10.382;2023-02-21T15:12:50;14.97;;;2.80;;
12511;SDS011;6321;53.798;10.382;2023-02-21T15:15:19;16.43;;;3.87;;
12511;SDS011;6321;53.798;10.382;2023-02-21T15:17:53;14.10;;;3.77;;
12511;SDS011;6321;53.798;10.382;2023-02-21T15:20:20;15.17;;;3.37;;
12511;SDS011;6321;53.798;10.382;2023-02-21T15:22:53;13.23;;;3.40;;
12511;SDS011;6321;53.798;10.382;2023-02-21T15:25:20;14.90;;;2.70;;
12511;SDS011;6321;53.798;10.382;2023-02-21T15:30:19;7.80;;;2.90;;
12511;SDS011;6321;53.798;10.382;2023-02-21T15:35:36;16.13;;;3.57;;
12511;SDS011;6321;53.798;10.382;2023-02-21T15:38:05;15.87;;;3.20;;
12511;SDS011;6321;53.798;10.382;2023-02-21T15:40:32;12.10;;;3.73;;
12511;SDS011;6321;53.798;10.382;2023-02-21T15:42:59;11.77;;;3.43;;
12511;SDS011;6321;53.798;10.382;2023-02-21T15:45:27;14.73;;;3.43;;
12511;SDS011;6321;53.798;10.382;2023-02-21T15:47:54;15.30;;;3.70;;
12511;SDS011;6321;53.798;10.382;2023-02-21T15:52:50;10.57;;;2.90;;
12511;SDS011;6321;53.798;10.382;2023-02-21T15:57:59;13.20;;;2.63;;
12511;SDS011;6321;53.798;10.382;2023-02-21T16:00:27;10.30;;;2.90;;
12511;SDS011;6321;53.798;10.382;2023-02-21T16:05:38;13.73;;;3.80;;
12511;SDS011;6321;53.798;10.382;2023-02-21T16:08:04;13.00;;;3.43;;
12511;SDS011;6321;53.798;10.382;2023-02-21T16:10:30;11.60;;;3.30;;
12511;SDS011;6321;53.798;10.382;2023-02-21T16:12:59;9.27;;;3.00;;
12511;SDS011;6321;53.798;10.382;2023-02-21T16:15:34;16.83;;;3.10;;
12511;SDS011;6321;53.798;10.382;2023-02-21T16:18:02;13.87;;;3.40;;
12511;SDS011;6321;53.798;10.382;2023-02-21T16:20:29;17.90;;;3.73;;
12511;SDS011;6321;53.798;10.382;2023-02-21T16:25:54;13.83;;;3.00;;
12511;SDS011;6321;53.798;10.382;2023-02-21T16:28:20;10.20;;;3.00;;
12511;SDS011;6321;53.798;10.382;2023-02-21T16:30:46;15.97;;;5.50;;
12511;SDS011;6321;53.798;10.382;2023-02-21T16:33:12;27.40;;;11.73;;
12511;SDS011;6321;53.798;10.382;2023-02-21T16:35:38;18.40;;;7.40;;
12511;SDS011;6321;53.798;10.382;2023-02-21T16:38:04;13.23;;;5.00;;
12511;SDS011;6321;53.798;10.382;2023-02-21T16:40:33;14.80;;;8.33;;
12511;SDS011;6321;53.798;10.382;2023-02-21T16:42:59;11.73;;;4.10;;
12511;SDS011;6321;53.798;10.382;2023-02-21T16:45:26;23.97;;;10.97;;
12511;SDS011;6321;53.798;10.382;2023-02-21T16:47:56;24.63;;;7.40;;
12511;SDS011;6321;53.798;10.382;2023-02-21T16:50:29;17.47;;;6.17;;
12511;SDS011;6321;53.798;10.382;2023-02-21T16:52:55;14.97;;;6.40;;
12511;SDS011;6321;53.798;10.382;2023-02-21T16:55:21;83.27;;;53.43;;
12511;SDS011;6321;53.798;10.382;2023-02-21T16:57:48;54.70;;;31.83;;
12511;SDS011;6321;53.798;10.382;2023-02-21T17:00:14;28.60;;;15.03;;
12511;SDS011;6321;53.798;10.382;2023-02-21T17:02:41;23.63;;;7.90;;
12511;SDS011;6321;53.798;10.382;2023-02-21T17:05:07;17.23;;;7.13;;